Terminal Aerodrome Forecast
Issued by NWS

Home | Current Version | Previous Version | Text Only | Print | Product List | Glossary On
Versions: 1 2 3 4 5 6 7 8 9 10 11 12 13 14 15 16 17 18 19 20 21 22
959
FTUS41 KCAR 110306 AAD
TAFFVE
TAF AMD
KFVE 110306Z 1103/1124 31008KT 6SM -SHSN BKN020 OVC035
      TEMPO 1103/1104 1 1/2SM -SHSN OVC015
     FM110600 VRB03KT 6SM -SHSN BKN025
     FM111000 VRB03KT 3SM -SHSN OVC015
     FM111500 01005KT P6SM BKN020
     FM112000 34004KT P6SM SCT025
     FM112200 VRB03KT P6SM SCT035 BKN200=

USA.gov is the U.S. government's official web portal to all federal, state and local government web resources and services.